sensor_id;sensor_type;location;lat;lon;timestamp;pressure;altitude;pressure_sealevel;temperature;humidity
25560;BME280;13450;49.374;8.584;2023-05-23T00:01:36;100299.50;;;18.07;nan
25560;BME280;13450;49.374;8.584;2023-05-23T00:04:03;100292.13;;;18.02;nan
25560;BME280;13450;49.374;8.584;2023-05-23T00:06:28;100295.91;;;18.01;nan
25560;BME280;13450;49.374;8.584;2023-05-23T00:08:53;100299.16;;;18.03;nan
25560;BME280;13450;49.374;8.584;2023-05-23T00:11:19;100297.19;;;17.98;nan
25560;BME280;13450;49.374;8.584;2023-05-23T00:13:47;100302.25;;;17.95;nan
25560;BME280;13450;49.374;8.584;2023-05-23T00:16:15;100297.31;;;17.91;nan
25560;BME280;13450;49.374;8.584;2023-05-23T00:18:40;100304.28;;;17.87;nan
25560;BME280;13450;49.374;8.584;2023-05-23T00:21:09;100307.44;;;17.84;nan
25560;BME280;13450;49.374;8.584;2023-05-23T00:23:34;100309.56;;;17.82;nan
25560;BME280;13450;49.374;8.584;2023-05-23T00:25:59;100314.63;;;17.78;nan
25560;BME280;13450;49.374;8.584;2023-05-23T00:28:25;100305.09;;;17.76;nan
25560;BME280;13450;49.374;8.584;2023-05-23T00:30:50;100308.03;;;17.74;nan
25560;BME280;13450;49.374;8.584;2023-05-23T00:33:17;100307.22;;;17.74;nan
25560;BME280;13450;49.374;8.584;2023-05-23T00:35:46;100308.97;;;17.68;nan
25560;BME280;13450;49.374;8.584;2023-05-23T00:38:11;100311.09;;;17.66;nan
25560;BME280;13450;49.374;8.584;2023-05-23T00:40:36;100306.97;;;17.63;nan
25560;BME280;13450;49.374;8.584;2023-05-23T00:43:02;100310.75;;;17.62;nan
25560;BME280;13450;49.374;8.584;2023-05-23T00:45:27;100310.41;;;17.59;nan
25560;BME280;13450;49.374;8.584;2023-05-23T00:47:53;100305.78;;;17.59;nan
25560;BME280;13450;49.374;8.584;2023-05-23T00:50:19;100311.69;;;17.56;nan
25560;BME280;13450;49.374;8.584;2023-05-23T00:52:47;100302.41;;;17.52;nan
25560;BME280;13450;49.374;8.584;2023-05-23T00:55:13;100312.63;;;17.50;nan
25560;BME280;13450;49.374;8.584;2023-05-23T00:57:39;100313.69;;;17.49;nan
25560;BME280;13450;49.374;8.584;2023-05-23T01:00:10;100307.56;;;17.42;nan
25560;BME280;13450;49.374;8.584;2023-05-23T01:02:42;100312.72;;;17.43;nan
25560;BME280;13450;49.374;8.584;2023-05-23T01:05:09;100311.31;;;17.41;nan
25560;BME280;13450;49.374;8.584;2023-05-23T01:07:37;100323.44;;;17.38;nan
25560;BME280;13450;49.374;8.584;2023-05-23T01:10:03;100325.31;;;17.37;nan
25560;BME280;13450;49.374;8.584;2023-05-23T01:12:55;100312.25;;;17.34;nan
25560;BME280;13450;49.374;8.584;2023-05-23T01:15:28;100316.03;;;17.33;nan
25560;BME280;13450;49.374;8.584;2023-05-23T01:18:15;100314.63;;;17.31;nan
25560;BME280;13450;49.374;8.584;2023-05-23T01:20:52;100316.94;;;17.27;nan
25560;BME280;13450;49.374;8.584;2023-05-23T01:26:17;100322.59;;;17.25;nan
25560;BME280;13450;49.374;8.584;2023-05-23T01:28:50;100332.13;;;17.28;nan
25560;BME280;13450;49.374;8.584;2023-05-23T01:31:19;100324.34;;;17.20;nan
25560;BME280;13450;49.374;8.584;2023-05-23T01:33:52;100325.38;;;17.19;nan
25560;BME280;13450;49.374;8.584;2023-05-23T01:36:21;100335.41;;;17.18;nan
25560;BME280;13450;49.374;8.584;2023-05-23T01:38:46;100332.91;;;17.17;nan
25560;BME280;13450;49.374;8.584;2023-05-23T01:41:11;100329.47;;;17.09;nan
25560;BME280;13450;49.374;8.584;2023-05-23T01:43:37;100332.19;;;17.09;nan
25560;BME280;13450;49.374;8.584;2023-05-23T01:46:03;100339.94;;;17.06;nan
25560;BME280;13450;49.374;8.584;2023-05-23T01:48:31;100330.78;;;17.07;nan
25560;BME280;13450;49.374;8.584;2023-05-23T01:50:57;100335.59;;;17.05;nan
25560;BME280;13450;49.374;8.584;2023-05-23T01:53:23;100341.44;;;17.02;nan
25560;BME280;13450;49.374;8.584;2023-05-23T01:55:50;100344.59;;;16.98;nan
25560;BME280;13450;49.374;8.584;2023-05-23T01:58:15;100349.19;;;16.98;nan
25560;BME280;13450;49.374;8.584;2023-05-23T02:00:41;100343.78;;;16.98;nan
25560;BME280;13450;49.374;8.584;2023-05-23T02:03:06;100335.53;;;16.93;nan
25560;BME280;13450;49.374;8.584;2023-05-23T02:05:34;100341.97;;;16.92;nan
25560;BME280;13450;49.374;8.584;2023-05-23T02:08:00;100349.28;;;16.91;nan
25560;BME280;13450;49.374;8.584;2023-05-23T02:10:25;100349.16;;;16.86;nan
25560;BME280;13450;49.374;8.584;2023-05-23T02:12:51;100349.38;;;16.84;nan
25560;BME280;13450;49.374;8.584;2023-05-23T02:15:16;100357.69;;;16.83;nan
25560;BME280;13450;49.374;8.584;2023-05-23T02:17:44;100349.25;;;16.79;nan
25560;BME280;13450;49.374;8.584;2023-05-23T02:20:09;100354.03;;;16.77;nan
25560;BME280;13450;49.374;8.584;2023-05-23T02:22:35;100352.38;;;16.76;nan
25560;BME280;13450;49.374;8.584;2023-05-23T02:25:03;100354.50;;;16.74;nan
25560;BME280;13450;49.374;8.584;2023-05-23T02:27:30;100354.25;;;16.76;nan
25560;BME280;13450;49.374;8.584;2023-05-23T02:29:55;100359.06;;;16.73;nan
25560;BME280;13450;49.374;8.584;2023-05-23T02:32:20;100356.16;;;16.75;nan
25560;BME280;13450;49.374;8.584;2023-05-23T02:34:46;100360.72;;;16.74;nan
25560;BME280;13450;49.374;8.584;2023-05-23T02:37:14;100358.00;;;16.74;nan
25560;BME280;13450;49.374;8.584;2023-05-23T02:39:41;100351.63;;;16.69;nan
25560;BME280;13450;49.374;8.584;2023-05-23T02:42:07;100360.22;;;16.66;nan
25560;BME280;13450;49.374;8.584;2023-05-23T02:44:34;100364.56;;;16.67;nan
25560;BME280;13450;49.374;8.584;2023-05-23T02:46:59;100366.66;;;16.65;nan
25560;BME280;13450;49.374;8.584;2023-05-23T02:49:25;100365.47;;;16.60;nan
25560;BME280;13450;49.374;8.584;2023-05-23T02:51:50;100372.06;;;16.65;nan
25560;BME280;13450;49.374;8.584;2023-05-23T02:54:15;100369.13;;;16.66;nan
25560;BME280;13450;49.374;8.584;2023-05-23T02:56:41;100370.53;;;16.69;nan
25560;BME280;13450;49.374;8.584;2023-05-23T02:59:06;100371.28;;;16.76;nan
25560;BME280;13450;49.374;8.584;2023-05-23T03:01:32;100367.31;;;16.79;nan
25560;BME280;13450;49.374;8.584;2023-05-23T03:03:57;100368.50;;;16.83;nan
25560;BME280;13450;49.374;8.584;2023-05-23T03:06:22;100373.47;;;16.86;nan
25560;BME280;13450;49.374;8.584;2023-05-23T03:08:48;100367.22;;;16.85;nan
25560;BME280;13450;49.374;8.584;2023-05-23T03:11:13;100365.94;;;16.88;nan
25560;BME280;13450;49.374;8.584;2023-05-23T03:13:39;100372.75;;;16.91;nan
25560;BME280;13450;49.374;8.584;2023-05-23T03:16:04;100376.06;;;16.93;nan
25560;BME280;13450;49.374;8.584;2023-05-23T03:18:30;100383.69;;;16.96;nan
25560;BME280;13450;49.374;8.584;2023-05-23T03:20:57;100379.97;;;16.97;nan
25560;BME280;13450;49.374;8.584;2023-05-23T03:23:22;100379.97;;;16.97;nan
25560;BME280;13450;49.374;8.584;2023-05-23T03:25:51;100383.25;;;16.99;nan
25560;BME280;13450;49.374;8.584;2023-05-23T03:28:16;100386.50;;;17.08;nan
25560;BME280;13450;49.374;8.584;2023-05-23T03:30:42;100381.44;;;17.11;nan
25560;BME280;13450;49.374;8.584;2023-05-23T03:33:07;100385.56;;;17.14;nan
25560;BME280;13450;49.374;8.584;2023-05-23T03:35:33;100381.72;;;17.22;nan
25560;BME280;13450;49.374;8.584;2023-05-23T03:37:58;100381.72;;;17.22;nan
25560;BME280;13450;49.374;8.584;2023-05-23T03:40:24;100388.75;;;17.23;nan
25560;BME280;13450;49.374;8.584;2023-05-23T03:43:03;100400.75;;;17.27;nan
25560;BME280;13450;49.374;8.584;2023-05-23T03:45:30;100393.63;;;17.33;nan
25560;BME280;13450;49.374;8.584;2023-05-23T03:47:55;100392.94;;;17.37;nan
25560;BME280;13450;49.374;8.584;2023-05-23T03:50:21;100392.22;;;17.42;nan
25560;BME280;13450;49.374;8.584;2023-05-23T03:52:46;100386.00;;;17.42;nan
25560;BME280;13450;49.374;8.584;2023-05-23T03:55:11;100399.03;;;17.45;nan
25560;BME280;13450;49.374;8.584;2023-05-23T03:57:37;100400.47;;;17.47;nan
25560;BME280;13450;49.374;8.584;2023-05-23T04:00:03;100403.88;;;17.43;nan
25560;BME280;13450;49.374;8.584;2023-05-23T04:02:38;100403.50;;;17.39;nan
25560;BME280;13450;49.374;8.584;2023-05-23T04:05:06;100407.75;;;17.35;nan
25560;BME280;13450;49.374;8.584;2023-05-23T04:07:32;100406.16;;;17.27;nan
25560;BME280;13450;49.374;8.584;2023-05-23T04:10:01;100407.69;;;17.23;nan
25560;BME280;13450;49.374;8.584;2023-05-23T04:12:28;100410.88;;;17.20;nan
25560;BME280;13450;49.374;8.584;2023-05-23T04:14:56;100408.03;;;17.15;nan
25560;BME280;13450;49.374;8.584;2023-05-23T04:17:23;100409.91;;;17.14;nan
25560;BME280;13450;49.374;8.584;2023-05-23T04:19:54;100418.00;;;17.14;nan
25560;BME280;13450;49.374;8.584;2023-05-23T04:22:20;100416.16;;;17.15;nan
25560;BME280;13450;49.374;8.584;2023-05-23T04:24:45;100422.59;;;17.13;nan
25560;BME280;13450;49.374;8.584;2023-05-23T04:27:11;100421.66;;;17.08;nan
25560;BME280;13450;49.374;8.584;2023-05-23T04:29:38;100423.75;;;17.06;nan
25560;BME280;13450;49.374;8.584;2023-05-23T04:32:04;100422.28;;;17.03;nan
25560;BME280;13450;49.374;8.584;2023-05-23T04:34:31;100426.84;;;17.03;nan
25560;BME280;13450;49.374;8.584;2023-05-23T04:36:58;100435.16;;;17.08;nan
25560;BME280;13450;49.374;8.584;2023-05-23T04:39:26;100423.88;;;17.11;nan
25560;BME280;13450;49.374;8.584;2023-05-23T04:41:51;100434.22;;;17.14;nan
25560;BME280;13450;49.374;8.584;2023-05-23T04:44:18;100424.84;;;17.17;nan
25560;BME280;13450;49.374;8.584;2023-05-23T04:46:44;100434.13;;;17.21;nan
25560;BME280;13450;49.374;8.584;2023-05-23T04:49:11;100437.91;;;17.20;nan
25560;BME280;13450;49.374;8.584;2023-05-23T04:51:40;100445.41;;;17.18;nan
25560;BME280;13450;49.374;8.584;2023-05-23T04:54:06;100445.28;;;17.12;nan
25560;BME280;13450;49.374;8.584;2023-05-23T04:56:31;100454.44;;;17.11;nan
25560;BME280;13450;49.374;8.584;2023-05-23T04:58:56;100447.38;;;17.10;nan
25560;BME280;13450;49.374;8.584;2023-05-23T05:01:24;100446.78;;;17.08;nan
25560;BME280;13450;49.374;8.584;2023-05-23T05:03:50;100458.47;;;17.02;nan
25560;BME280;13450;49.374;8.584;2023-05-23T05:06:16;100459.28;;;17.03;nan
25560;BME280;13450;49.374;8.584;2023-05-23T05:08:41;100454.13;;;17.01;nan
25560;BME280;13450;49.374;8.584;2023-05-23T05:11:08;100446.69;;;16.96;nan
25560;BME280;13450;49.374;8.584;2023-05-23T05:13:33;100450.25;;;16.97;nan
25560;BME280;13450;49.374;8.584;2023-05-23T05:15:58;100464.19;;;16.94;nan
25560;BME280;13450;49.374;8.584;2023-05-23T05:18:26;100459.84;;;16.93;nan
25560;BME280;13450;49.374;8.584;2023-05-23T05:20:52;100469.47;;;16.89;nan
25560;BME280;13450;49.374;8.584;2023-05-23T05:23:17;100468.41;;;16.90;nan
25560;BME280;13450;49.374;8.584;2023-05-23T05:25:44;100470.44;;;16.94;nan
25560;BME280;13450;49.374;8.584;2023-05-23T05:28:10;100473.66;;;17.03;nan
25560;BME280;13450;49.374;8.584;2023-05-23T05:30:35;100478.78;;;17.11;nan
25560;BME280;13450;49.374;8.584;2023-05-23T05:33:02;100489.28;;;17.20;nan
25560;BME280;13450;49.374;8.584;2023-05-23T05:35:32;100489.53;;;17.30;nan
25560;BME280;13450;49.374;8.584;2023-05-23T05:37:58;100491.81;;;17.33;nan
25560;BME280;13450;49.374;8.584;2023-05-23T05:40:23;100497.66;;;17.30;nan
25560;BME280;13450;49.374;8.584;2023-05-23T05:42:51;100490.03;;;17.39;nan
25560;BME280;13450;49.374;8.584;2023-05-23T05:45:16;100497.47;;;17.44;nan
25560;BME280;13450;49.374;8.584;2023-05-23T05:47:43;100510.69;;;17.52;nan
25560;BME280;13450;49.374;8.584;2023-05-23T05:50:09;100501.94;;;17.50;nan
25560;BME280;13450;49.374;8.584;2023-05-23T05:52:38;100508.69;;;17.59;nan
25560;BME280;13450;49.374;8.584;2023-05-23T05:55:08;100513.66;;;17.62;nan
25560;BME280;13450;49.374;8.584;2023-05-23T05:57:36;100510.22;;;17.55;nan
25560;BME280;13450;49.374;8.584;2023-05-23T06:00:09;100516.66;;;17.54;nan
25560;BME280;13450;49.374;8.584;2023-05-23T06:02:43;100516.81;;;17.59;nan
25560;BME280;13450;49.374;8.584;2023-05-23T06:05:11;100523.50;;;17.57;nan
25560;BME280;13450;49.374;8.584;2023-05-23T06:07:37;100522.69;;;17.56;nan
25560;BME280;13450;49.374;8.584;2023-05-23T06:10:04;100521.75;;;17.62;nan
25560;BME280;13450;49.374;8.584;2023-05-23T06:12:29;100525.97;;;17.58;nan
25560;BME280;13450;49.374;8.584;2023-05-23T06:14:54;100534.09;;;17.58;nan
25560;BME280;13450;49.374;8.584;2023-05-23T06:17:20;100534.22;;;17.63;nan
25560;BME280;13450;49.374;8.584;2023-05-23T06:19:45;100526.88;;;17.83;nan
25560;BME280;13450;49.374;8.584;2023-05-23T06:22:10;100536.06;;;17.82;nan
25560;BME280;13450;49.374;8.584;2023-05-23T06:24:36;100543.63;;;17.91;nan
25560;BME280;13450;49.374;8.584;2023-05-23T06:27:01;100540.75;;;17.86;nan
25560;BME280;13450;49.374;8.584;2023-05-23T06:29:26;100545.00;;;17.82;nan
25560;BME280;13450;49.374;8.584;2023-05-23T06:31:55;100543.34;;;17.81;nan
25560;BME280;13450;49.374;8.584;2023-05-23T06:34:23;100539.00;;;17.80;nan
25560;BME280;13450;49.374;8.584;2023-05-23T06:36:48;100545.59;;;17.84;nan
25560;BME280;13450;49.374;8.584;2023-05-23T06:39:14;100545.16;;;17.99;nan
25560;BME280;13450;49.374;8.584;2023-05-23T06:41:39;100558.28;;;18.14;nan
25560;BME280;13450;49.374;8.584;2023-05-23T06:44:04;100550.75;;;18.16;nan
25560;BME280;13450;49.374;8.584;2023-05-23T06:46:30;100558.66;;;18.30;nan
25560;BME280;13450;49.374;8.584;2023-05-23T06:48:55;100554.66;;;18.33;nan
25560;BME280;13450;49.374;8.584;2023-05-23T06:51:21;100564.31;;;18.40;nan
25560;BME280;13450;49.374;8.584;2023-05-23T06:53:46;100566.44;;;18.38;nan
25560;BME280;13450;49.374;8.584;2023-05-23T06:56:14;100560.44;;;18.36;nan
25560;BME280;13450;49.374;8.584;2023-05-23T06:58:42;100572.44;;;18.40;nan
25560;BME280;13450;49.374;8.584;2023-05-23T07:01:10;100574.91;;;18.42;nan
25560;BME280;13450;49.374;8.584;2023-05-23T07:03:35;100575.03;;;18.47;nan
25560;BME280;13450;49.374;8.584;2023-05-23T07:06:05;100579.63;;;18.47;nan
25560;BME280;13450;49.374;8.584;2023-05-23T07:08:31;100581.38;;;18.29;nan
25560;BME280;13450;49.374;8.584;2023-05-23T07:10:56;100582.00;;;18.55;nan
25560;BME280;13450;49.374;8.584;2023-05-23T07:13:24;100593.41;;;18.81;nan
25560;BME280;13450;49.374;8.584;2023-05-23T07:15:49;100590.59;;;19.00;nan
25560;BME280;13450;49.374;8.584;2023-05-23T07:18:14;100593.06;;;19.13;nan
25560;BME280;13450;49.374;8.584;2023-05-23T07:20:42;100585.25;;;19.29;nan
25560;BME280;13450;49.374;8.584;2023-05-23T07:23:07;100588.50;;;19.43;nan
25560;BME280;13450;49.374;8.584;2023-05-23T07:25:33;100608.41;;;19.48;nan
25560;BME280;13450;49.374;8.584;2023-05-23T07:27:58;100601.44;;;19.53;nan
25560;BME280;13450;49.374;8.584;2023-05-23T07:30:24;100590.38;;;19.42;nan
25560;BME280;13450;49.374;8.584;2023-05-23T07:32:49;100597.97;;;19.40;nan
25560;BME280;13450;49.374;8.584;2023-05-23T07:35:17;100598.16;;;19.51;nan
25560;BME280;13450;49.374;8.584;2023-05-23T07:37:45;100598.63;;;19.47;nan
25560;BME280;13450;49.374;8.584;2023-05-23T07:40:11;100599.19;;;19.62;nan
25560;BME280;13450;49.374;8.584;2023-05-23T07:42:37;100603.38;;;19.40;nan
25560;BME280;13450;49.374;8.584;2023-05-23T07:45:02;100600.81;;;19.33;nan
25560;BME280;13450;49.374;8.584;2023-05-23T07:47:28;100613.91;;;19.25;nan
25560;BME280;13450;49.374;8.584;2023-05-23T07:49:56;100605.28;;;19.04;nan
25560;BME280;13450;49.374;8.584;2023-05-23T07:52:21;100609.09;;;18.91;nan
25560;BME280;13450;49.374;8.584;2023-05-23T07:54:46;100604.97;;;18.88;nan
25560;BME280;13450;49.374;8.584;2023-05-23T07:57:11;100612.03;;;18.89;nan
25560;BME280;13450;49.374;8.584;2023-05-23T07:59:39;100606.72;;;18.94;nan
25560;BME280;13450;49.374;8.584;2023-05-23T08:02:05;100608.97;;;19.10;nan
25560;BME280;13450;49.374;8.584;2023-05-23T08:04:31;100610.16;;;19.14;nan
25560;BME280;13450;49.374;8.584;2023-05-23T08:06:58;100613.16;;;19.41;nan
25560;BME280;13450;49.374;8.584;2023-05-23T08:09:24;100616.25;;;19.74;nan
25560;BME280;13450;49.374;8.584;2023-05-23T08:11:49;100619.78;;;20.04;nan
25560;BME280;13450;49.374;8.584;2023-05-23T08:14:15;100623.69;;;20.25;nan
25560;BME280;13450;49.374;8.584;2023-05-23T08:16:40;100617.09;;;20.21;nan
25560;BME280;13450;49.374;8.584;2023-05-23T08:19:06;100630.06;;;20.19;nan
25560;BME280;13450;49.374;8.584;2023-05-23T08:21:31;100623.66;;;20.08;nan
25560;BME280;13450;49.374;8.584;2023-05-23T08:23:59;100622.69;;;20.14;nan
25560;BME280;13450;49.374;8.584;2023-05-23T08:26:24;100625.34;;;19.97;nan
25560;BME280;13450;49.374;8.584;2023-05-23T08:28:52;100619.69;;;19.98;nan
25560;BME280;13450;49.374;8.584;2023-05-23T08:31:17;100616.84;;;19.93;nan
25560;BME280;13450;49.374;8.584;2023-05-23T08:33:42;100632.34;;;19.93;nan
25560;BME280;13450;49.374;8.584;2023-05-23T08:36:08;100634.97;;;19.88;nan
25560;BME280;13450;49.374;8.584;2023-05-23T08:38:34;100625.09;;;19.98;nan
25560;BME280;13450;49.374;8.584;2023-05-23T08:41:00;100631.75;;;20.20;nan
25560;BME280;13450;49.374;8.584;2023-05-23T08:43:26;100631.00;;;20.24;nan
25560;BME280;13450;49.374;8.584;2023-05-23T08:45:52;100634.88;;;20.29;nan
25560;BME280;13450;49.374;8.584;2023-05-23T08:48:21;100631.84;;;20.42;nan
25560;BME280;13450;49.374;8.584;2023-05-23T08:50:47;100629.38;;;20.58;nan
25560;BME280;13450;49.374;8.584;2023-05-23T08:53:16;100632.38;;;20.78;nan
25560;BME280;13450;49.374;8.584;2023-05-23T08:55:48;100634.22;;;20.90;nan
25560;BME280;13450;49.374;8.584;2023-05-23T08:58:17;100633.22;;;20.96;nan
25560;BME280;13450;49.374;8.584;2023-05-23T09:00:45;100624.50;;;20.94;nan
25560;BME280;13450;49.374;8.584;2023-05-23T09:03:10;100627.22;;;20.94;nan
25560;BME280;13450;49.374;8.584;2023-05-23T09:05:36;100636.00;;;21.01;nan
25560;BME280;13450;49.374;8.584;2023-05-23T09:08:01;100638.97;;;21.00;nan
25560;BME280;13450;49.374;8.584;2023-05-23T09:10:27;100631.59;;;20.95;nan
25560;BME280;13450;49.374;8.584;2023-05-23T09:12:57;100642.00;;;20.86;nan
25560;BME280;13450;49.374;8.584;2023-05-23T09:15:23;100637.53;;;20.58;nan
25560;BME280;13450;49.374;8.584;2023-05-23T09:17:50;100641.97;;;20.47;nan
25560;BME280;13450;49.374;8.584;2023-05-23T09:20:17;100640.31;;;20.29;nan
25560;BME280;13450;49.374;8.584;2023-05-23T09:22:47;100635.69;;;20.63;nan
25560;BME280;13450;49.374;8.584;2023-05-23T09:25:12;100644.28;;;20.72;nan
25560;BME280;13450;49.374;8.584;2023-05-23T09:27:38;100648.06;;;20.88;nan
25560;BME280;13450;49.374;8.584;2023-05-23T09:30:08;100635.47;;;21.44;nan
25560;BME280;13450;49.374;8.584;2023-05-23T09:32:35;100636.09;;;22.01;nan
25560;BME280;13450;49.374;8.584;2023-05-23T09:35:02;100640.00;;;22.11;nan
25560;BME280;13450;49.374;8.584;2023-05-23T09:37:38;100647.13;;;22.12;nan
25560;BME280;13450;49.374;8.584;2023-05-23T09:40:09;100639.53;;;22.19;nan
25560;BME280;13450;49.374;8.584;2023-05-23T09:42:35;100630.88;;;22.22;nan
25560;BME280;13450;49.374;8.584;2023-05-23T09:45:05;100651.66;;;22.01;nan
25560;BME280;13450;49.374;8.584;2023-05-23T09:47:31;100636.72;;;21.81;nan
25560;BME280;13450;49.374;8.584;2023-05-23T09:49:56;100642.69;;;21.33;nan
25560;BME280;13450;49.374;8.584;2023-05-23T09:52:21;100638.34;;;21.32;nan
25560;BME280;13450;49.374;8.584;2023-05-23T09:54:47;100647.47;;;21.03;nan
25560;BME280;13450;49.374;8.584;2023-05-23T09:57:14;100642.94;;;20.92;nan
25560;BME280;13450;49.374;8.584;2023-05-23T09:59:50;100649.13;;;21.04;nan
25560;BME280;13450;49.374;8.584;2023-05-23T10:05:14;100642.81;;;21.66;nan
25560;BME280;13450;49.374;8.584;2023-05-23T10:07:44;100646.22;;;21.78;nan
25560;BME280;13450;49.374;8.584;2023-05-23T10:10:11;100646.44;;;21.99;nan
25560;BME280;13450;49.374;8.584;2023-05-23T10:12:41;100645.66;;;22.31;nan
25560;BME280;13450;49.374;8.584;2023-05-23T10:15:08;100648.91;;;22.61;nan
25560;BME280;13450;49.374;8.584;2023-05-23T10:20:14;100646.59;;;22.80;nan
25560;BME280;13450;49.374;8.584;2023-05-23T10:22:41;100647.13;;;22.77;nan
25560;BME280;13450;49.374;8.584;2023-05-23T10:25:07;100638.38;;;22.75;nan
25560;BME280;13450;49.374;8.584;2023-05-23T10:27:35;100650.91;;;22.11;nan
25560;BME280;13450;49.374;8.584;2023-05-23T10:30:01;100651.97;;;21.60;nan
25560;BME280;13450;49.374;8.584;2023-05-23T10:32:28;100653.69;;;21.43;nan
25560;BME280;13450;49.374;8.584;2023-05-23T10:41:05;100651.19;;;20.80;nan
25560;BME280;13450;49.374;8.584;2023-05-23T10:43:28;100650.03;;;20.76;nan
25560;BME280;13450;49.374;8.584;2023-05-23T10:45:55;100653.41;;;20.66;nan
25560;BME280;13450;49.374;8.584;2023-05-23T10:53:37;100665.03;;;20.61;nan
25560;BME280;13450;49.374;8.584;2023-05-23T10:56:04;100667.16;;;20.59;nan
25560;BME280;13450;49.374;8.584;2023-05-23T10:58:32;100667.47;;;20.46;nan
25560;BME280;13450;49.374;8.584;2023-05-23T11:01:04;100666.75;;;20.50;nan
25560;BME280;13450;49.374;8.584;2023-05-23T11:03:31;100670.16;;;20.58;nan
25560;BME280;13450;49.374;8.584;2023-05-23T11:06:03;100659.53;;;20.56;nan
25560;BME280;13450;49.374;8.584;2023-05-23T11:08:36;100667.78;;;19.86;nan
25560;BME280;13450;49.374;8.584;2023-05-23T11:11:03;100666.16;;;20.31;nan
25560;BME280;13450;49.374;8.584;2023-05-23T11:13:54;100668.06;;;20.31;nan
25560;BME280;13450;49.374;8.584;2023-05-23T11:16:31;100661.72;;;20.59;nan
25560;BME280;13450;49.374;8.584;2023-05-23T11:19:26;100669.50;;;21.69;nan
25560;BME280;13450;49.374;8.584;2023-05-23T11:21:53;100660.19;;;22.42;nan
25560;BME280;13450;49.374;8.584;2023-05-23T11:24:21;100665.44;;;22.49;nan
25560;BME280;13450;49.374;8.584;2023-05-23T11:26:56;100662.66;;;22.44;nan
25560;BME280;13450;49.374;8.584;2023-05-23T11:29:27;100664.03;;;22.14;nan
25560;BME280;13450;49.374;8.584;2023-05-23T11:31:54;100666.31;;;21.72;nan
25560;BME280;13450;49.374;8.584;2023-05-23T11:34:20;100665.78;;;21.30;nan
25560;BME280;13450;49.374;8.584;2023-05-23T11:36:52;100664.88;;;21.02;nan
25560;BME280;13450;49.374;8.584;2023-05-23T11:39:18;100675.66;;;20.97;nan
25560;BME280;13450;49.374;8.584;2023-05-23T11:41:49;100671.59;;;20.83;nan
25560;BME280;13450;49.374;8.584;2023-05-23T11:44:22;100671.78;;;20.76;nan
25560;BME280;13450;49.374;8.584;2023-05-23T11:46:59;100675.81;;;20.90;nan
25560;BME280;13450;49.374;8.584;2023-05-23T11:49:27;100677.06;;;21.00;nan
25560;BME280;13450;49.374;8.584;2023-05-23T11:51:53;100676.56;;;21.03;nan
25560;BME280;13450;49.374;8.584;2023-05-23T11:54:23;100671.16;;;21.25;nan
25560;BME280;13450;49.374;8.584;2023-05-23T11:56:55;100662.25;;;21.52;nan
25560;BME280;13450;49.374;8.584;2023-05-23T11:59:25;100665.88;;;21.80;nan
25560;BME280;13450;49.374;8.584;2023-05-23T12:01:51;100663.47;;;22.12;nan
25560;BME280;13450;49.374;8.584;2023-05-23T12:04:16;100650.66;;;22.45;nan
25560;BME280;13450;49.374;8.584;2023-05-23T12:06:44;100659.69;;;23.27;nan
25560;BME280;13450;49.374;8.584;2023-05-23T12:09:10;100655.59;;;24.03;nan
25560;BME280;13450;49.374;8.584;2023-05-23T12:11:38;100649.03;;;24.98;nan
25560;BME280;13450;49.374;8.584;2023-05-23T12:14:07;100654.81;;;24.91;nan
25560;BME280;13450;49.374;8.584;2023-05-23T12:16:33;100655.13;;;26.46;nan
25560;BME280;13450;49.374;8.584;2023-05-23T12:18:59;100649.56;;;26.51;nan
25560;BME280;13450;49.374;8.584;2023-05-23T12:21:25;100656.06;;;26.31;nan
25560;BME280;13450;49.374;8.584;2023-05-23T12:23:51;100659.91;;;25.90;nan
25560;BME280;13450;49.374;8.584;2023-05-23T12:26:17;100656.41;;;24.77;nan
25560;BME280;13450;49.374;8.584;2023-05-23T12:28:43;100656.72;;;24.18;nan
25560;BME280;13450;49.374;8.584;2023-05-23T12:31:11;100658.44;;;23.50;nan
25560;BME280;13450;49.374;8.584;2023-05-23T12:33:41;100660.41;;;23.06;nan
25560;BME280;13450;49.374;8.584;2023-05-23T12:36:13;100665.97;;;23.32;nan
25560;BME280;13450;49.374;8.584;2023-05-23T12:38:42;100666.84;;;22.90;nan
25560;BME280;13450;49.374;8.584;2023-05-23T12:41:17;100666.50;;;22.48;nan
25560;BME280;13450;49.374;8.584;2023-05-23T12:43:53;100665.72;;;22.20;nan
25560;BME280;13450;49.374;8.584;2023-05-23T12:46:23;100656.06;;;22.07;nan
25560;BME280;13450;49.374;8.584;2023-05-23T12:48:49;100655.63;;;22.48;nan
25560;BME280;13450;49.374;8.584;2023-05-23T12:51:17;100659.03;;;22.60;nan
25560;BME280;13450;49.374;8.584;2023-05-23T12:53:44;100651.47;;;23.21;nan
25560;BME280;13450;49.374;8.584;2023-05-23T12:56:09;100656.28;;;23.52;nan
25560;BME280;13450;49.374;8.584;2023-05-23T12:58:35;100650.59;;;23.74;nan
25560;BME280;13450;49.374;8.584;2023-05-23T13:01:01;100652.53;;;23.79;nan
25560;BME280;13450;49.374;8.584;2023-05-23T13:03:29;100656.56;;;23.56;nan
25560;BME280;13450;49.374;8.584;2023-05-23T13:05:57;100648.84;;;23.42;nan
25560;BME280;13450;49.374;8.584;2023-05-23T13:08:24;100645.78;;;23.28;nan
25560;BME280;13450;49.374;8.584;2023-05-23T13:10:49;100642.25;;;22.84;nan
25560;BME280;13450;49.374;8.584;2023-05-23T13:13:15;100648.69;;;22.68;nan
25560;BME280;13450;49.374;8.584;2023-05-23T13:15:43;100642.66;;;22.60;nan
25560;BME280;13450;49.374;8.584;2023-05-23T13:18:08;100643.38;;;22.89;nan
25560;BME280;13450;49.374;8.584;2023-05-23T13:20:33;100637.25;;;25.03;nan
25560;BME280;13450;49.374;8.584;2023-05-23T13:22:59;100635.97;;;26.41;nan
25560;BME280;13450;49.374;8.584;2023-05-23T13:25:28;100641.69;;;28.58;nan
25560;BME280;13450;49.374;8.584;2023-05-23T13:27:53;100643.22;;;29.11;nan
25560;BME280;13450;49.374;8.584;2023-05-23T13:30:19;100640.31;;;30.41;nan